Aeroporto :
LOGIN :

Iscrizione | Disclaimer

   EN    FR    IT 

 










Sommario :    VFR   VFR Marginale   IFR   IFR Intensivo   IFR Molto Intensivo
Visibilità : 
Base nubi : 
>= 8 km
>= 3000ft
5 / 8 km
1000 / 3000 ft
1500m / 5 km
500 / 1000 ft
800 / 1500m
200 / 500 ft
< 800m
< 200 ft
Simboli :   Temporali  Nebbia  Neve Forte  Precipitazioni Forti  Vento > 20 kt
SIGMETs :   Varie  Temporali  Ghiacco  Turbolenza  Onda orograficha  Ceneri Vulcaniche






- Altitudine del aeroporto : 142 ft
- Codice IATA : ALC


LEAL - Alicante

ULTIMO METAR :
  • 301700Z 08017KT 9999 BKN029 OVC033 13/08 Q1011 NOSIG

METARs OBSOLETI :
  • 301630Z 07019KT 9999 OVC029 13/07 Q1011 NOSIG
  • 301600Z 07018KT 9999 OVC031 13/08 Q1011 NOSIG
  • 301430Z 08017KT 9999 OVC031 14/09 Q1011 NOSIG

TAF TAF LEAL
Valido dal 30 a 18 ore il 31 a 18 ore UTC


301700Z 3018/3118 07015KT 9999 SCT020 OVC030 TX18/3112Z TN10/3106Z
TEMPO 3018/3020 07015G25KT
BECMG 3024/3102 03007KT
PROB40
TEMPO 3018/3110 4000 SHRA SCT020TCU OVC030



MetMap, La meteo Aeronautica in un colpo d'occhio ! - Copyright ORBIFLY Dicembre 2007 - Disclaimer

ORBIFLY MET'MAP TEAM :

Programmazione e sviluppo : Alexandra Zaïnal
Concezione : Baudouin d'Aumeries
Aiuto per la programmazione : Marc-Olivier Méhu
Supporto tecnico e logistico : Manuel Goepfert
Aiuto per la traduzione : Arnaldo La Scala

Contatto : metmap@orbifly.com




FONTI E CREDITI :

   NOAA